Time,TemperatureF,DewpointF,PressureIn,WindDirection,WindDirectionDegrees,WindSpeedMPH,WindSpeedGustMPH,Humidity,HourlyPrecipIn,Conditions,Clouds,dailyrainin,SoftwareType,DateUTC
2013-03-29 00:02:00,37.0,28.0,-100.00,East,100,3.0,7.0,70,0.00,,,-99.99,,2013-03-29 06:02:00,
2013-03-29 00:12:00,36.0,28.0,-100.00,ENE,60,4.0,4.0,70,0.00,,,-99.99,,2013-03-29 06:12:00,
2013-03-29 00:23:00,36.0,27.0,-100.00,ENE,70,3.0,4.0,70,0.00,,,-99.99,,2013-03-29 06:23:00,
2013-03-29 00:32:00,35.0,27.0,-100.00,ENE,60,4.0,5.0,71,0.00,,,-99.99,,2013-03-29 06:32:00,
2013-03-29 00:42:00,35.0,27.0,-100.00,ESE,115,6.0,6.0,72,0.00,,,-99.99,,2013-03-29 06:42:00,
2013-03-29 00:52:00,35.0,27.0,-100.00,East,85,6.0,7.0,72,0.00,,,-99.99,,2013-03-29 06:52:00,
2013-03-29 01:03:00,35.0,27.0,-100.00,East,100,6.0,7.0,73,0.00,,,-99.99,,2013-03-29 07:03:00,
2013-03-29 01:12:00,35.0,27.0,-100.00,East,85,6.0,7.0,74,0.00,,,-99.99,,2013-03-29 07:12:00,
2013-03-29 01:22:00,35.0,27.0,-100.00,East,95,6.0,7.0,74,0.00,,,-99.99,,2013-03-29 07:22:00,
2013-03-29 01:32:00,34.0,27.0,-100.00,East,90,4.0,7.0,75,0.00,,,-99.99,,2013-03-29 07:32:00,
2013-03-29 01:42:00,33.0,27.0,-100.00,East,95,3.0,4.0,76,0.00,,,-99.99,,2013-03-29 07:42:00,
2013-03-29 01:52:00,33.0,27.0,-100.00,East,85,5.0,6.0,76,0.00,,,-99.99,,2013-03-29 07:52:00,
2013-03-29 02:02:00,33.0,26.0,-100.00,East,85,5.0,8.0,77,0.00,,,-99.99,,2013-03-29 08:02:00,
2013-03-29 02:12:00,32.0,26.0,-100.00,East,100,4.0,6.0,78,0.00,,,-99.99,,2013-03-29 08:12:00,
2013-03-29 02:22:00,32.0,26.0,-100.00,ESE,115,4.0,5.0,79,0.00,,,-99.99,,2013-03-29 08:22:00,
2013-03-29 02:32:00,31.0,26.0,-100.00,East,100,5.0,6.0,80,0.00,,,-99.99,,2013-03-29 08:32:00,
2013-03-29 02:42:00,31.0,25.0,-100.00,ESE,105,6.0,7.0,80,0.00,,,-99.99,,2013-03-29 08:42:00,
2013-03-29 02:52:00,31.0,26.0,-100.00,SE,130,4.0,6.0,81,0.00,,,-99.99,,2013-03-29 08:52:00,
2013-03-29 03:02:00,31.0,26.0,-100.00,East,90,4.0,6.0,81,0.00,,,-99.99,,2013-03-29 09:02:00,
2013-03-29 03:13:00,31.0,26.0,-100.00,NE,55,2.0,6.0,81,0.00,,,-99.99,,2013-03-29 09:13:00,
2013-03-29 03:22:00,31.0,26.0,-100.00,ENE,75,3.0,5.0,81,0.00,,,-99.99,,2013-03-29 09:22:00,
2013-03-29 03:33:00,32.0,27.0,-100.00,East,95,7.0,8.0,81,0.00,,,-99.99,,2013-03-29 09:33:00,
2013-03-29 03:42:00,33.0,28.0,-100.00,NE,45,7.0,10.0,81,0.00,,,-99.99,,2013-03-29 09:42:00,
2013-03-29 03:52:00,33.0,28.0,-100.00,NNE,25,7.0,12.0,81,0.00,,,-99.99,,2013-03-29 09:52:00,
2013-03-29 04:02:00,33.0,28.0,-100.00,ENE,70,7.0,12.0,80,0.00,,,-99.99,,2013-03-29 10:02:00,
2013-03-29 04:12:00,32.0,27.0,-100.00,East,90,3.0,8.0,80,0.00,,,-99.99,,2013-03-29 10:12:00,
2013-03-29 04:22:00,31.0,26.0,-100.00,East,85,2.0,4.0,80,0.00,,,-99.99,,2013-03-29 10:22:00,
2013-03-29 04:33:00,31.0,25.0,-100.00,ENE,75,3.0,6.0,80,0.00,,,-99.99,,2013-03-29 10:33:00,
2013-03-29 04:42:00,31.0,26.0,-100.00,East,80,3.0,6.0,80,0.00,,,-99.99,,2013-03-29 10:42:00,
2013-03-29 04:52:00,30.0,25.0,-100.00,East,80,2.0,5.0,81,0.00,,,-99.99,,2013-03-29 10:52:00,
2013-03-29 05:03:00,29.0,24.0,-100.00,East,90,3.0,4.0,81,0.00,,,-99.99,,2013-03-29 11:03:00,
2013-03-29 05:12:00,29.0,24.0,-100.00,ESE,110,2.0,4.0,82,0.00,,,-99.99,,2013-03-29 11:12:00,
2013-03-29 05:23:00,29.0,24.0,-100.00,East,80,4.0,4.0,82,0.00,,,-99.99,,2013-03-29 11:23:00,
2013-03-29 05:32:00,28.0,24.0,-100.00,SE,125,4.0,6.0,83,0.00,,,-99.99,,2013-03-29 11:32:00,
2013-03-29 05:42:00,28.0,23.0,-100.00,East,90,4.0,6.0,84,0.00,,,-99.99,,2013-03-29 11:42:00,
2013-03-29 05:52:00,28.0,24.0,-100.00,ESE,120,4.0,6.0,85,0.00,,,-99.99,,2013-03-29 11:52:00,
2013-03-29 06:03:00,28.0,24.0,-100.00,East,100,5.0,6.0,85,0.00,,,-99.99,,2013-03-29 12:03:00,
2013-03-29 06:12:00,27.0,24.0,-100.00,East,90,3.0,5.0,86,0.00,,,-99.99,,2013-03-29 12:12:00,
2013-03-29 06:22:00,27.0,23.0,-100.00,ESE,115,3.0,6.0,86,0.00,,,-99.99,,2013-03-29 12:22:00,
2013-03-29 06:32:00,27.0,23.0,-100.00,ESE,105,4.0,6.0,86,0.00,,,-99.99,,2013-03-29 12:32:00,
2013-03-29 06:42:00,27.0,24.0,-100.00,East,95,6.0,7.0,87,0.00,,,-99.99,,2013-03-29 12:42:00,
2013-03-29 06:53:00,27.0,24.0,-100.00,East,100,4.0,6.0,88,0.00,,,-99.99,,2013-03-29 12:53:00,
2013-03-29 07:03:00,28.0,25.0,-100.00,East,90,4.0,7.0,88,0.00,,,-99.99,,2013-03-29 13:03:00,
2013-03-29 07:12:00,29.0,26.0,-100.00,ENE,70,6.0,6.0,88,0.00,,,-99.99,,2013-03-29 13:12:00,
2013-03-29 07:22:00,29.0,26.0,-100.00,East,80,4.0,7.0,88,0.00,,,-99.99,,2013-03-29 13:22:00,
2013-03-29 07:32:00,29.0,27.0,-100.00,ESE,105,5.0,6.0,88,0.00,,,-99.99,,2013-03-29 13:32:00,
2013-03-29 07:42:00,30.0,27.0,-100.00,ENE,75,4.0,6.0,88,0.00,,,-99.99,,2013-03-29 13:42:00,
2013-03-29 07:53:00,30.0,28.0,-100.00,ENE,60,6.0,7.0,88,0.00,,,-99.99,,2013-03-29 13:53:00,
2013-03-29 08:02:00,31.0,28.0,-100.00,ENE,60,6.0,8.0,88,0.00,,,-99.99,,2013-03-29 14:02:00,
2013-03-29 08:12:00,32.0,28.0,-100.00,NE,35,7.0,11.0,86,0.00,,,-99.99,,2013-03-29 14:12:00,
2013-03-29 08:22:00,32.0,28.0,-100.00,SE,135,2.0,7.0,86,0.00,,,-99.99,,2013-03-29 14:22:00,
2013-03-29 08:32:00,32.0,28.0,-100.00,South,185,0.0,2.0,85,0.00,,,-99.99,,2013-03-29 14:32:00,
2013-03-29 08:42:00,32.0,28.0,-100.00,East,95,5.0,7.0,84,0.00,,,-99.99,,2013-03-29 14:42:00,
2013-03-29 08:52:00,33.0,28.0,-100.00,East,85,7.0,8.0,83,0.00,,,-99.99,,2013-03-29 14:52:00,
2013-03-29 09:02:00,34.0,29.0,-100.00,East,95,6.0,9.0,80,0.00,,,-99.99,,2013-03-29 15:02:00,
2013-03-29 09:12:00,34.0,28.0,-100.00,SE,125,4.0,7.0,77,0.00,,,-99.99,,2013-03-29 15:12:00,
2013-03-29 09:22:00,35.0,28.0,-100.00,ESE,120,3.0,4.0,74,0.00,,,-99.99,,2013-03-29 15:22:00,
2013-03-29 09:33:00,35.0,28.0,-100.00,East,85,6.0,7.0,72,0.00,,,-99.99,,2013-03-29 15:33:00,
2013-03-29 09:43:00,36.0,28.0,-100.00,East,80,6.0,7.0,70,0.00,,,-99.99,,2013-03-29 15:43:00,
2013-03-29 09:53:00,37.0,27.0,-100.00,ESE,115,5.0,7.0,67,0.00,,,-99.99,,2013-03-29 15:53:00,
2013-03-29 10:03:00,37.0,27.0,-100.00,East,100,6.0,7.0,66,0.00,,,-99.99,,2013-03-29 16:03:00,
2013-03-29 10:13:00,37.0,27.0,-100.00,East,90,6.0,7.0,65,0.00,,,-99.99,,2013-03-29 16:13:00,
2013-03-29 10:23:00,39.0,28.0,-100.00,ESE,115,4.0,6.0,64,0.00,,,-99.99,,2013-03-29 16:23:00,
2013-03-29 10:32:00,41.0,29.0,-100.00,East,95,4.0,7.0,61,0.00,,,-99.99,,2013-03-29 16:32:00,
2013-03-29 10:42:00,41.0,28.0,-100.00,East,100,5.0,7.0,59,0.00,,,-99.99,,2013-03-29 16:42:00,
2013-03-29 10:52:00,41.0,28.0,-100.00,ESE,115,2.0,6.0,58,0.00,,,-99.99,,2013-03-29 16:52:00,
2013-03-29 11:03:00,42.0,28.0,-100.00,East,95,2.0,4.0,58,0.00,,,-99.99,,2013-03-29 17:03:00,
2013-03-29 11:12:00,42.0,28.0,-100.00,ESE,105,3.0,4.0,57,0.00,,,-99.99,,2013-03-29 17:12:00,
2013-03-29 11:22:00,44.0,29.0,-100.00,ESE,110,0.0,4.0,56,0.00,,,-99.99,,2013-03-29 17:22:00,
2013-03-29 11:33:00,45.0,30.0,-100.00,East,95,4.0,4.0,55,0.00,,,-99.99,,2013-03-29 17:33:00,
2013-03-29 11:42:00,48.0,29.0,-100.00,WNW,290,6.0,7.0,48,0.00,,,-99.99,,2013-03-29 17:42:00,
2013-03-29 11:53:00,50.0,28.0,-100.00,WNW,285,4.0,9.0,43,0.00,,,-99.99,,2013-03-29 17:53:00,
2013-03-29 12:02:00,51.0,28.0,-100.00,WNW,300,3.0,9.0,40,0.00,,,-99.99,,2013-03-29 18:02:00,
2013-03-29 12:12:00,51.0,27.0,-100.00,WNW,295,9.0,12.0,38,0.00,,,-99.99,,2013-03-29 18:12:00,
2013-03-29 12:22:00,51.0,27.0,-100.00,WNW,300,9.0,12.0,38,0.00,,,-99.99,,2013-03-29 18:22:00,
2013-03-29 12:32:00,52.0,28.0,-100.00,West,280,10.0,14.0,38,0.00,,,-99.99,,2013-03-29 18:32:00,
2013-03-29 12:42:00,52.0,28.0,-100.00,WNW,285,12.0,20.0,38,0.00,,,-99.99,,2013-03-29 18:42:00,
2013-03-29 12:52:00,52.0,27.0,-100.00,WNW,285,10.0,17.0,37,0.00,,,-99.99,,2013-03-29 18:52:00,
2013-03-29 13:02:00,53.0,28.0,-100.00,WNW,285,11.0,16.0,37,0.00,,,-99.99,,2013-03-29 19:02:00,
2013-03-29 13:12:00,54.0,28.0,-100.00,WNW,295,8.0,14.0,36,0.00,,,-99.99,,2013-03-29 19:12:00,
2013-03-29 13:22:00,53.0,27.0,-100.00,WNW,290,9.0,17.0,36,0.00,,,-99.99,,2013-03-29 19:22:00,
2013-03-29 13:32:00,53.0,27.0,-100.00,WNW,295,11.0,18.0,35,0.00,,,-99.99,,2013-03-29 19:32:00,
2013-03-29 13:42:00,53.0,26.0,-100.00,WNW,300,12.0,17.0,35,0.00,,,-99.99,,2013-03-29 19:42:00,
2013-03-29 13:52:00,53.0,26.0,-100.00,WNW,300,15.0,20.0,35,0.00,,,-99.99,,2013-03-29 19:52:00,
2013-03-29 14:01:00,49.0,25.0,-100.00,West,275,14.0,35.0,39,0.00,,,-99.99,,2013-03-29 20:01:00,
2013-03-29 14:02:00,53.0,26.0,-100.00,WNW,295,13.0,26.0,35,0.00,,,-99.99,,2013-03-29 20:02:00,
2013-03-29 14:12:00,52.0,26.0,-100.00,NW,310,7.0,30.0,35,0.00,,,-99.99,,2013-03-29 20:12:00,
2013-03-29 14:22:00,49.0,25.0,-100.00,West,275,14.0,35.0,39,0.00,,,-99.99,,2013-03-29 20:22:00,
2013-03-29 14:33:00,49.0,25.0,-100.00,West,275,14.0,35.0,39,0.00,,,-99.99,,2013-03-29 20:33:00,
2013-03-29 14:42:00,49.0,25.0,-100.00,West,275,14.0,35.0,39,0.00,,,-99.99,,2013-03-29 20:42:00,
2013-03-29 14:52:00,49.0,25.0,-100.00,West,275,14.0,35.0,39,0.00,,,-99.99,,2013-03-29 20:52:00,
2013-03-29 17:03:00,46.0,28.0,-100.00,SSW,210,3.0,7.0,49,0.00,,,-99.99,,2013-03-29 23:03:00,
2013-03-29 17:12:00,47.0,29.0,-100.00,East,85,1.0,3.0,48,0.00,,,-99.99,,2013-03-29 23:12:00,
2013-03-29 17:22:00,47.0,28.0,-100.00,SSE,150,1.0,3.0,47,0.00,,,-99.99,,2013-03-29 23:22:00,
2013-03-29 17:32:00,47.0,28.0,-100.00,ESE,115,7.0,9.0,47,0.00,,,-99.99,,2013-03-29 23:32:00,
2013-03-29 17:42:00,46.0,29.0,-100.00,East,100,6.0,6.0,49,0.00,,,-99.99,,2013-03-29 23:42:00,
2013-03-29 17:52:00,46.0,29.0,-100.00,East,100,4.0,6.0,50,0.00,,,-99.99,,2013-03-29 23:52:00,
2013-03-29 18:03:00,45.0,28.0,-100.00,East,95,3.0,6.0,51,0.00,,,-99.99,,2013-03-30 00:03:00,
2013-03-29 18:12:00,45.0,28.0,-100.00,ESE,115,2.0,4.0,52,0.00,,,-99.99,,2013-03-30 00:12:00,
2013-03-29 18:22:00,44.0,28.0,-100.00,SE,135,2.0,4.0,52,0.00,,,-99.99,,2013-03-30 00:22:00,
2013-03-29 18:32:00,45.0,29.0,-100.00,NE,45,4.0,9.0,53,0.00,,,-99.99,,2013-03-30 00:32:00,
2013-03-29 18:42:00,45.0,30.0,-100.00,NE,45,4.0,10.0,54,0.10,,,-99.99,,2013-03-30 00:42:00,
2013-03-29 18:53:00,44.0,31.0,-100.00,North,0,3.0,6.0,58,0.00,,,-99.99,,2013-03-30 00:53:00,
2013-03-29 19:02:00,44.0,32.0,-100.00,NNE,15,4.0,9.0,61,0.00,,,-99.99,,2013-03-30 01:02:00,
2013-03-29 19:12:00,44.0,32.0,-100.00,NE,40,4.0,10.0,63,0.00,,,-99.99,,2013-03-30 01:12:00,
2013-03-29 19:22:00,42.0,32.0,-100.00,East,90,3.0,6.0,65,0.00,,,-99.99,,2013-03-30 01:22:00,
2013-03-29 19:32:00,42.0,32.0,-100.00,SSE,150,6.0,7.0,68,0.00,,,-99.99,,2013-03-30 01:32:00,
2013-03-29 19:43:00,42.0,33.0,-100.00,South,175,3.0,9.0,68,0.00,,,-99.99,,2013-03-30 01:43:00,
2013-03-29 19:52:00,42.0,33.0,-100.00,NE,35,7.0,12.0,69,0.00,,,-99.99,,2013-03-30 01:52:00,
2013-03-29 20:02:00,42.0,33.0,-100.00,North,10,1.0,11.0,70,0.00,,,-99.99,,2013-03-30 02:02:00,
2013-03-29 20:12:00,41.0,33.0,-100.00,NE,40,4.0,7.0,72,0.00,,,-99.99,,2013-03-30 02:12:00,
2013-03-29 20:22:00,41.0,33.0,-100.00,NNE,30,4.0,9.0,74,0.00,,,-99.99,,2013-03-30 02:22:00,
2013-03-29 20:32:00,40.0,33.0,-100.00,ENE,60,4.0,8.0,76,0.00,,,-99.99,,2013-03-30 02:32:00,
2013-03-29 20:42:00,40.0,34.0,-100.00,NE,55,4.0,6.0,78,0.00,,,-99.99,,2013-03-30 02:42:00,
2013-03-29 20:52:00,40.0,34.0,-100.00,ENE,60,4.0,8.0,80,0.00,,,-99.99,,2013-03-30 02:52:00,
2013-03-29 21:02:00,39.0,34.0,-100.00,East,95,1.0,7.0,82,0.00,,,-99.99,,2013-03-30 03:02:00,
2013-03-29 21:12:00,39.0,34.0,-100.00,NE,50,4.0,6.0,83,0.00,,,-99.99,,2013-03-30 03:12:00,
2013-03-29 21:22:00,38.0,34.0,-100.00,ENE,70,4.0,6.0,84,0.00,,,-99.99,,2013-03-30 03:22:00,
2013-03-29 21:33:00,37.0,33.0,-100.00,SE,130,2.0,6.0,86,0.00,,,-99.99,,2013-03-30 03:33:00,
2013-03-29 21:43:00,36.0,33.0,-100.00,SE,125,3.0,6.0,86,0.00,,,-99.99,,2013-03-30 03:43:00,
2013-03-29 21:53:00,36.0,33.0,-100.00,East,95,5.0,6.0,88,0.00,,,-99.99,,2013-03-30 03:53:00,
2013-03-29 22:02:00,35.0,33.0,-100.00,ESE,110,4.0,5.0,89,0.00,,,-99.99,,2013-03-30 04:02:00,
2013-03-29 22:12:00,35.0,33.0,-100.00,ESE,120,1.0,5.0,90,0.00,,,-99.99,,2013-03-30 04:12:00,
2013-03-29 22:23:00,36.0,33.0,-100.00,East,85,2.0,6.0,91,0.00,,,-99.99,,2013-03-30 04:23:00,
2013-03-29 22:32:00,35.0,33.0,-100.00,ESE,115,4.0,4.0,91,0.00,,,-99.99,,2013-03-30 04:32:00,
2013-03-29 22:43:00,35.0,33.0,-100.00,ENE,75,4.0,4.0,92,0.00,,,-99.99,,2013-03-30 04:43:00,
2013-03-29 22:52:00,35.0,33.0,-100.00,East,85,0.0,6.0,92,0.00,,,-99.99,,2013-03-30 04:52:00,
2013-03-29 23:02:00,37.0,35.0,-100.00,NE,40,6.0,7.0,92,0.00,,,-99.99,,2013-03-30 05:02:00,
2013-03-29 23:12:00,36.0,34.0,-100.00,ESE,115,3.0,7.0,93,0.00,,,-99.99,,2013-03-30 05:12:00,
2013-03-29 23:22:00,37.0,35.0,-100.00,WNW,290,6.0,10.0,93,0.00,,,-99.99,,2013-03-30 05:22:00,
2013-03-29 23:32:00,37.0,35.0,-100.00,SSW,195,6.0,11.0,93,0.10,,,-99.99,,2013-03-30 05:32:00,
2013-03-29 23:42:00,36.0,35.0,-100.00,East,90,1.0,6.0,93,0.00,,,-99.99,,2013-03-30 05:42:00,
2013-03-29 23:52:00,35.0,34.0,-100.00,SE,140,1.0,4.0,94,0.00,,,-99.99,,2013-03-30 05:52:00,